createdAt,value
2023-02-02T00:01:39.586Z,93557.75
2023-02-02T00:04:08.017Z,93559.97
2023-02-02T00:06:35.998Z,93554.88
2023-02-02T00:09:04.172Z,93550.41
2023-02-02T00:11:32.161Z,93550.47
2023-02-02T00:14:01.129Z,93558.31
2023-02-02T00:16:29.278Z,93547.38
2023-02-02T00:19:00.166Z,93549.03
2023-02-02T00:21:29.456Z,93548.00
2023-02-02T00:23:57.341Z,93553.66
2023-02-02T00:26:25.357Z,93540.56
2023-02-02T00:28:53.558Z,93541.31
2023-02-02T00:31:23.234Z,93549.44
2023-02-02T00:33:51.754Z,93543.19
2023-02-02T00:36:21.250Z,93541.13
2023-02-02T00:38:50.137Z,93545.16
2023-02-02T00:41:18.227Z,93528.59
2023-02-02T00:44:06.390Z,93549.25
2023-02-02T00:46:34.440Z,93545.41
2023-02-02T00:49:02.384Z,93552.50
2023-02-02T00:51:30.157Z,93533.69
2023-02-02T00:53:58.961Z,93553.91
2023-02-02T00:56:26.825Z,93544.19
2023-02-02T00:58:54.888Z,93551.91
2023-02-02T01:01:23.087Z,93546.22
2023-02-02T01:03:51.386Z,93564.00
2023-02-02T01:06:19.670Z,93543.09
2023-02-02T01:08:47.706Z,93541.06
2023-02-02T01:11:16.728Z,93551.78
2023-02-02T01:13:44.840Z,93536.81
2023-02-02T01:16:13.401Z,93538.28
2023-02-02T01:18:41.211Z,93534.88
2023-02-02T01:21:11.577Z,93517.88
2023-02-02T01:23:40.447Z,93536.91
2023-02-02T01:26:12.257Z,93537.16
2023-02-02T01:28:40.693Z,93535.75
2023-02-02T01:31:13.385Z,93522.38
2023-02-02T01:33:42.578Z,93511.63
2023-02-02T01:36:16.525Z,93530.06
2023-02-02T01:38:45.702Z,93519.31
2023-02-02T01:41:19.935Z,93511.03
2023-02-02T01:43:47.681Z,93520.94
2023-02-02T01:46:30.741Z,93516.28
2023-02-02T01:49:06.121Z,93511.63
2023-02-02T01:51:56.641Z,93492.97
2023-02-02T01:54:32.364Z,93505.97
2023-02-02T01:57:10.555Z,93500.91
2023-02-02T01:59:39.099Z,93505.38
2023-02-02T02:02:07.676Z,93499.28
2023-02-02T02:04:35.977Z,93506.56
2023-02-02T02:07:05.969Z,93501.72
2023-02-02T02:09:35.062Z,93510.22
2023-02-02T02:12:02.955Z,93509.81
2023-02-02T02:14:49.486Z,93514.88
2023-02-02T02:17:39.849Z,93512.22
2023-02-02T02:20:44.980Z,93519.25
2023-02-02T02:23:43.936Z,93513.78
2023-02-02T02:26:43.629Z,93513.56
2023-02-02T02:30:03.517Z,93512.31
2023-02-02T02:32:56.117Z,93518.00
2023-02-02T02:35:48.820Z,93519.69
2023-02-02T02:38:41.278Z,93514.25
2023-02-02T02:41:15.966Z,93505.09
2023-02-02T02:43:48.409Z,93514.75
2023-02-02T02:46:16.905Z,93490.06
2023-02-02T02:48:46.204Z,93503.41
2023-02-02T02:51:36.347Z,93504.97
2023-02-02T02:54:05.661Z,93513.63
2023-02-02T02:59:24.122Z,93504.44
2023-02-02T03:02:22.931Z,93509.91
2023-02-02T03:05:09.314Z,93508.34
2023-02-02T03:08:07.943Z,93513.97
2023-02-02T03:10:38.661Z,93516.53
2023-02-02T03:13:11.640Z,93508.94
2023-02-02T03:15:44.223Z,93511.47
2023-02-02T03:18:15.651Z,93512.19
2023-02-02T03:20:45.321Z,93497.69
2023-02-02T03:23:14.201Z,93509.81
2023-02-02T03:25:42.077Z,93512.72
2023-02-02T03:28:10.318Z,93505.63
2023-02-02T03:30:42.220Z,93498.09
2023-02-02T03:33:12.118Z,93505.13
2023-02-02T03:35:40.849Z,93505.28
2023-02-02T03:38:09.294Z,93510.69
2023-02-02T03:40:37.234Z,93506.88
2023-02-02T03:43:05.446Z,93511.84
2023-02-02T03:45:35.599Z,93506.81
2023-02-02T03:48:07.084Z,93511.88
2023-02-02T03:50:34.956Z,93518.81
2023-02-02T03:53:02.963Z,93510.78
2023-02-02T03:55:31.409Z,93528.63
2023-02-02T03:58:02.205Z,93523.81
2023-02-02T04:00:30.180Z,93537.06
2023-02-02T04:02:59.903Z,93538.31
2023-02-02T04:05:30.740Z,93532.16
2023-02-02T04:07:58.846Z,93530.56
2023-02-02T04:10:28.809Z,93526.22
2023-02-02T04:12:56.940Z,93542.72
2023-02-02T04:15:24.920Z,93532.09
2023-02-02T04:17:53.203Z,93540.66
2023-02-02T04:20:20.972Z,93527.09
2023-02-02T04:22:48.905Z,93540.72
2023-02-02T04:25:16.991Z,93531.41
2023-02-02T04:27:44.818Z,93533.06
2023-02-02T04:30:13.073Z,93523.16
2023-02-02T04:32:40.913Z,93538.00
2023-02-02T04:35:09.363Z,93543.78
2023-02-02T04:37:37.269Z,93539.56
2023-02-02T04:40:05.988Z,93550.25
2023-02-02T04:42:35.221Z,93553.38
2023-02-02T04:45:03.537Z,93550.88
2023-02-02T04:47:31.458Z,93553.69
2023-02-02T04:49:59.374Z,93556.09
2023-02-02T04:52:27.303Z,93550.75
2023-02-02T04:54:55.307Z,93556.78
2023-02-02T04:57:23.299Z,93566.66
2023-02-02T04:59:51.186Z,93574.09
2023-02-02T05:02:19.828Z,93559.34
2023-02-02T05:04:48.012Z,93566.56
2023-02-02T05:07:15.844Z,93569.91
2023-02-02T05:09:43.815Z,93566.97
2023-02-02T05:12:12.023Z,93558.38
2023-02-02T05:14:39.951Z,93562.66
2023-02-02T05:17:07.878Z,93558.78
2023-02-02T05:19:35.866Z,93566.03
2023-02-02T05:22:03.896Z,93568.75
2023-02-02T05:24:31.906Z,93563.16
2023-02-02T05:27:00.948Z,93566.75
2023-02-02T05:29:30.343Z,93571.66
2023-02-02T05:31:58.722Z,93548.38
2023-02-02T05:34:26.873Z,93570.94
2023-02-02T05:36:55.241Z,93567.69
2023-02-02T05:39:23.210Z,93563.19
2023-02-02T05:41:51.121Z,93564.53
2023-02-02T05:44:19.185Z,93569.22
2023-02-02T05:46:47.022Z,93570.56
2023-02-02T05:49:14.983Z,93570.56
2023-02-02T05:51:48.987Z,93576.81
2023-02-02T05:54:20.740Z,93571.59
2023-02-02T05:56:52.724Z,93580.97
2023-02-02T05:59:20.747Z,93575.16
2023-02-02T06:01:49.494Z,93571.91
2023-02-02T06:04:17.602Z,93590.06
2023-02-02T06:06:45.951Z,93577.69
2023-02-02T06:09:14.290Z,93582.22
2023-02-02T06:11:43.967Z,93584.19
2023-02-02T06:14:13.323Z,93591.59
2023-02-02T06:16:41.671Z,93588.25
2023-02-02T06:19:09.735Z,93589.34
2023-02-02T06:21:37.651Z,93580.59
2023-02-02T06:24:06.032Z,93594.72
2023-02-02T06:26:33.882Z,93590.72
2023-02-02T06:29:02.548Z,93600.66
2023-02-02T06:31:30.620Z,93600.91
2023-02-02T06:33:59.543Z,93600.75
2023-02-02T06:36:28.220Z,93604.41
2023-02-02T06:38:57.556Z,93603.38
2023-02-02T06:41:26.234Z,93603.72
2023-02-02T06:43:54.266Z,93604.56
2023-02-02T06:46:22.105Z,93605.50
2023-02-02T06:48:50.023Z,93605.13
2023-02-02T06:51:18.098Z,93603.75
2023-02-02T06:53:51.845Z,93596.22
2023-02-02T06:56:19.718Z,93609.56
2023-02-02T06:58:47.607Z,93610.69
2023-02-02T07:01:15.845Z,93612.81
2023-02-02T07:03:43.726Z,93603.34
2023-02-02T07:06:19.907Z,93600.72
2023-02-02T07:08:57.644Z,93567.25
2023-02-02T07:11:37.238Z,93615.84
2023-02-02T07:14:09.880Z,93609.00
2023-02-02T07:16:37.845Z,93624.88
2023-02-02T07:19:05.847Z,93605.50
2023-02-02T07:21:36.525Z,93621.78
2023-02-02T07:24:05.865Z,93622.25
2023-02-02T07:26:34.944Z,93575.50
2023-02-02T07:29:04.792Z,93616.50
2023-02-02T07:31:35.823Z,93615.28
2023-02-02T07:34:04.849Z,93614.38
2023-02-02T07:36:33.308Z,93616.63
2023-02-02T07:39:04.126Z,93618.09
2023-02-02T07:41:34.038Z,93616.72
2023-02-02T07:44:02.418Z,93622.59
2023-02-02T07:46:30.543Z,93614.66
2023-02-02T07:48:58.633Z,93615.75
2023-02-02T07:51:26.926Z,93611.78
2023-02-02T07:53:55.899Z,93607.84
2023-02-02T07:56:26.601Z,93603.56
2023-02-02T07:58:56.690Z,93587.25
2023-02-02T08:01:26.596Z,93573.56
2023-02-02T08:03:56.500Z,93575.47
2023-02-02T08:06:28.580Z,93577.84
2023-02-02T08:08:56.994Z,93565.53
2023-02-02T08:11:26.400Z,93566.56
2023-02-02T08:13:59.157Z,93564.16
2023-02-02T08:16:29.132Z,93552.06
2023-02-02T08:19:07.192Z,93552.63
2023-02-02T08:21:35.815Z,93558.16
2023-02-02T08:24:05.377Z,93553.97
2023-02-02T08:26:33.637Z,93533.53
2023-02-02T08:29:05.919Z,93533.03
2023-02-02T08:31:37.816Z,93531.81
2023-02-02T08:34:06.073Z,93516.00
2023-02-02T08:36:35.814Z,93517.31
2023-02-02T08:39:11.252Z,93537.28
2023-02-02T08:41:39.585Z,93526.44
2023-02-02T08:44:11.340Z,93544.91
2023-02-02T08:46:40.022Z,93544.16
2023-02-02T08:49:13.377Z,93530.47
2023-02-02T08:51:42.229Z,93538.28
2023-02-02T08:54:10.112Z,93530.22
2023-02-02T08:56:38.601Z,93512.25
2023-02-02T08:59:06.622Z,93513.91
2023-02-02T09:01:35.407Z,93515.81
2023-02-02T09:04:09.253Z,93508.06
2023-02-02T09:06:41.570Z,93518.16
2023-02-02T09:09:13.637Z,93526.47
2023-02-02T09:11:42.512Z,93514.84
2023-02-02T09:14:11.103Z,93519.81
2023-02-02T09:16:39.366Z,93510.91
2023-02-02T09:19:08.213Z,93505.81
2023-02-02T09:21:37.535Z,93479.78
2023-02-02T09:24:13.511Z,93478.59
2023-02-02T09:26:42.577Z,93489.28
2023-02-02T09:29:18.046Z,93482.97
2023-02-02T09:31:47.169Z,93489.88
2023-02-02T09:34:16.213Z,93479.50
2023-02-02T09:36:44.842Z,93486.41
2023-02-02T09:39:13.452Z,93483.03
2023-02-02T09:41:56.169Z,93471.41
2023-02-02T09:44:42.826Z,93465.13
2023-02-02T09:47:17.332Z,93461.13
2023-02-02T09:50:06.346Z,93455.63
2023-02-02T09:52:40.929Z,93450.50
2023-02-02T09:55:30.599Z,93451.59
2023-02-02T09:58:28.987Z,93458.25
2023-02-02T10:01:11.439Z,93459.63
2023-02-02T10:04:01.953Z,93442.53
2023-02-02T10:06:42.437Z,93439.31
2023-02-02T10:09:24.405Z,93449.63
2023-02-02T10:12:21.761Z,93441.88
2023-02-02T10:15:13.491Z,93437.59
2023-02-02T10:17:55.430Z,93437.72
2023-02-02T10:20:45.833Z,93431.00
2023-02-02T10:23:26.961Z,93422.66
2023-02-02T10:25:56.866Z,93416.84
2023-02-02T10:28:36.752Z,93421.81
2023-02-02T10:31:06.215Z,93425.91
2023-02-02T10:33:40.817Z,93430.25
2023-02-02T10:36:22.254Z,93433.56
2023-02-02T10:39:33.368Z,93418.09
2023-02-02T10:42:16.917Z,93429.50
2023-02-02T10:45:10.381Z,93416.97
2023-02-02T10:47:38.978Z,93417.97
2023-02-02T10:50:12.676Z,93404.38
2023-02-02T10:52:45.747Z,93408.72
2023-02-02T10:55:24.528Z,93414.59
2023-02-02T10:57:55.071Z,93400.50
2023-02-02T11:00:25.925Z,93386.50
2023-02-02T11:02:54.743Z,93386.25
2023-02-02T11:05:42.688Z,93373.06
2023-02-02T11:08:16.427Z,93382.50
2023-02-02T11:10:45.996Z,93389.38
2023-02-02T11:13:31.233Z,93383.44
2023-02-02T11:16:17.773Z,93384.56
2023-02-02T11:18:46.684Z,93373.16
2023-02-02T11:21:31.551Z,93379.41
2023-02-02T11:24:03.891Z,93380.19
2023-02-02T11:26:54.168Z,93388.47
2023-02-02T11:29:29.850Z,93384.41
2023-02-02T11:31:58.220Z,93388.78
2023-02-02T11:34:28.087Z,93390.00
2023-02-02T11:37:14.793Z,93382.53
2023-02-02T11:39:44.435Z,93369.06
2023-02-02T11:42:18.793Z,93375.56
2023-02-02T11:45:15.485Z,93355.59
2023-02-02T11:47:45.284Z,93353.72
2023-02-02T11:50:31.581Z,93354.63
2023-02-02T11:53:00.183Z,93343.63
2023-02-02T11:55:30.800Z,93338.97
2023-02-02T11:58:28.214Z,93342.22
2023-02-02T12:01:02.141Z,93330.03
2023-02-02T12:03:31.792Z,93345.09
2023-02-02T12:06:02.581Z,93342.25
2023-02-02T12:08:31.409Z,93341.41
2023-02-02T12:11:00.458Z,93331.94
2023-02-02T12:13:52.320Z,93319.88
2023-02-02T12:16:27.888Z,93317.31
2023-02-02T12:19:10.663Z,93303.38
2023-02-02T12:22:04.730Z,93301.09
2023-02-02T12:24:37.323Z,93310.91
2023-02-02T12:27:12.141Z,93307.16
2023-02-02T12:29:52.416Z,93302.91
2023-02-02T12:32:26.132Z,93305.13
2023-02-02T12:35:22.033Z,93290.47
2023-02-02T12:38:08.111Z,93288.84
2023-02-02T12:41:04.995Z,93296.34
2023-02-02T12:43:56.009Z,93291.28
2023-02-02T12:46:32.948Z,93287.25
2023-02-02T12:49:24.954Z,93284.16
2023-02-02T12:52:11.423Z,93291.25
2023-02-02T12:54:57.385Z,93294.09
2023-02-02T12:57:38.153Z,93294.47
2023-02-02T13:00:12.157Z,93294.91
2023-02-02T13:03:17.540Z,93292.31
2023-02-02T13:06:09.943Z,93277.28
2023-02-02T13:08:52.339Z,93281.56
2023-02-02T13:11:35.601Z,93296.09
2023-02-02T13:14:16.487Z,93290.28
2023-02-02T13:16:49.570Z,93288.66
2023-02-02T13:19:35.757Z,93287.66
2023-02-02T13:22:07.230Z,93284.63
2023-02-02T13:24:40.224Z,93288.16
2023-02-02T13:27:13.810Z,93289.16
2023-02-02T13:29:48.299Z,93286.97
2023-02-02T13:32:32.361Z,93289.94
2023-02-02T13:35:21.817Z,93293.34
2023-02-02T13:38:05.293Z,93296.31
2023-02-02T13:40:41.200Z,93306.47
2023-02-02T13:43:16.529Z,93292.28
2023-02-02T13:46:07.108Z,93296.66
2023-02-02T13:49:02.417Z,93293.94
2023-02-02T13:51:54.014Z,93274.03
2023-02-02T13:54:44.888Z,93288.16
2023-02-02T13:57:53.253Z,93295.31
2023-02-02T14:00:25.646Z,93297.88
2023-02-02T14:03:26.548Z,93287.66
2023-02-02T14:06:25.781Z,93296.25
2023-02-02T14:09:00.632Z,93296.91
2023-02-02T14:11:32.831Z,93287.94
2023-02-02T14:14:32.408Z,93295.56
2023-02-02T14:17:08.245Z,93287.72
2023-02-02T14:19:36.110Z,93281.34
2023-02-02T14:22:05.613Z,93271.69
2023-02-02T14:24:36.578Z,93280.34
2023-02-02T14:27:44.805Z,93277.97
2023-02-02T14:30:24.270Z,93292.34
2023-02-02T14:32:52.557Z,93310.59
2023-02-02T14:35:41.245Z,93274.59
2023-02-02T14:38:22.291Z,93292.13
2023-02-02T14:41:50.945Z,93269.97
2023-02-02T14:44:19.535Z,93297.88
2023-02-02T14:46:49.558Z,93294.88
2023-02-02T14:49:21.899Z,93301.34
2023-02-02T14:51:54.266Z,93303.50
2023-02-02T14:54:26.792Z,93299.50
2023-02-02T14:57:05.376Z,93305.78
2023-02-02T14:59:39.541Z,93326.13
2023-02-02T15:02:15.779Z,93337.09
2023-02-02T15:04:48.067Z,93384.56
2023-02-02T15:07:24.891Z,93388.41
2023-02-02T15:09:56.930Z,93389.38
2023-02-02T15:12:35.843Z,93400.06
2023-02-02T15:15:14.406Z,93425.59
2023-02-02T15:17:54.427Z,93458.44
2023-02-02T15:20:47.863Z,93459.84
2023-02-02T15:23:22.840Z,93483.53
2023-02-02T15:26:04.574Z,93490.69
2023-02-02T15:28:44.928Z,93497.88
2023-02-02T15:31:35.668Z,93516.00
2023-02-02T15:34:17.821Z,93519.69
2023-02-02T15:36:48.789Z,93541.59
2023-02-02T15:39:39.592Z,93541.59
2023-02-02T15:42:39.736Z,93534.31
2023-02-02T15:45:31.508Z,93552.94
2023-02-02T15:48:09.527Z,93548.84
2023-02-02T15:50:39.906Z,93570.28
2023-02-02T15:53:19.236Z,93563.63
2023-02-02T15:55:48.113Z,93575.53
2023-02-02T15:58:32.639Z,93568.22
2023-02-02T16:01:07.394Z,93575.28
2023-02-02T16:03:43.827Z,93562.75
2023-02-02T16:06:13.074Z,93576.13
2023-02-02T16:08:42.349Z,93576.72
2023-02-02T16:11:15.615Z,93584.84
2023-02-02T16:14:05.670Z,93594.56
2023-02-02T16:16:40.152Z,93571.44
2023-02-02T16:19:21.575Z,93597.81
2023-02-02T16:22:08.166Z,93590.09
2023-02-02T16:24:48.194Z,93593.53
2023-02-02T16:27:24.073Z,93614.00
2023-02-02T16:29:53.238Z,93589.31
2023-02-02T16:32:35.546Z,93604.31
2023-02-02T16:35:27.993Z,93597.00
2023-02-02T16:38:33.017Z,93611.13
2023-02-02T16:41:07.550Z,93602.25
2023-02-02T16:43:38.526Z,93586.47
2023-02-02T16:46:07.710Z,93607.31
2023-02-02T16:48:46.637Z,93594.31
2023-02-02T16:51:18.022Z,93608.06
2023-02-02T16:54:02.817Z,93602.00
2023-02-02T16:56:34.412Z,93596.78
2023-02-02T16:59:35.659Z,93599.25
2023-02-02T17:02:27.117Z,93603.31
2023-02-02T17:05:38.508Z,93594.41
2023-02-02T17:08:08.343Z,93595.22
2023-02-02T17:10:42.786Z,93606.97
2023-02-02T17:13:32.891Z,93611.81
2023-02-02T17:16:01.472Z,93609.34
2023-02-02T17:18:29.903Z,93608.16
2023-02-02T17:21:04.654Z,93622.69
2023-02-02T17:23:36.637Z,93628.81
2023-02-02T17:26:08.274Z,93622.94
2023-02-02T17:28:41.835Z,93633.03
2023-02-02T17:31:15.672Z,93643.34
2023-02-02T17:33:44.450Z,93631.78
2023-02-02T17:36:13.761Z,93628.72
2023-02-02T17:38:42.229Z,93620.19
2023-02-02T17:41:13.221Z,93604.22
2023-02-02T17:43:43.127Z,93596.72
2023-02-02T17:46:14.808Z,93602.13
2023-02-02T17:48:43.387Z,93600.31
2023-02-02T17:51:16.767Z,93620.38
2023-02-02T17:53:46.834Z,93637.72
2023-02-02T17:56:15.743Z,93621.13
2023-02-02T17:58:44.092Z,93634.84
2023-02-02T18:01:13.294Z,93620.91
2023-02-02T18:03:46.071Z,93620.75
2023-02-02T18:06:14.731Z,93614.03
2023-02-02T18:08:43.262Z,93616.84
2023-02-02T18:11:14.054Z,93618.31
2023-02-02T18:13:44.620Z,93615.03
2023-02-02T18:16:14.300Z,93608.41
2023-02-02T18:18:43.148Z,93630.31
2023-02-02T18:21:12.361Z,93619.16
2023-02-02T18:23:41.595Z,93630.50
2023-02-02T18:26:13.803Z,93628.22
2023-02-02T18:28:42.232Z,93610.78
2023-02-02T18:31:14.057Z,93625.19
2023-02-02T18:33:43.615Z,93625.41
2023-02-02T18:36:15.811Z,93640.22
2023-02-02T18:38:45.713Z,93644.28
2023-02-02T18:41:16.381Z,93645.09
2023-02-02T18:43:45.977Z,93653.25
2023-02-02T18:46:15.947Z,93646.75
2023-02-02T18:48:45.410Z,93661.75
2023-02-02T18:51:16.919Z,93661.34
2023-02-02T18:53:47.108Z,93652.69
2023-02-02T18:56:18.568Z,93650.91
2023-02-02T18:58:47.418Z,93659.66
2023-02-02T19:01:18.629Z,93675.06
2023-02-02T19:03:52.171Z,93674.28
2023-02-02T19:06:40.033Z,93671.41
2023-02-02T19:09:12.359Z,93675.88
2023-02-02T19:11:44.317Z,93658.56
2023-02-02T19:14:26.891Z,93667.34
2023-02-02T19:17:00.337Z,93668.19
2023-02-02T19:19:33.778Z,93671.84
2023-02-02T19:22:08.174Z,93668.19
2023-02-02T19:24:40.740Z,93666.94
2023-02-02T19:27:18.573Z,93666.13
2023-02-02T19:29:53.973Z,93665.75
2023-02-02T19:32:25.409Z,93664.13
2023-02-02T19:34:57.633Z,93667.56
2023-02-02T19:37:32.337Z,93670.19
2023-02-02T19:40:09.638Z,93659.63
2023-02-02T19:42:44.139Z,93687.59
2023-02-02T19:45:30.267Z,93687.97
2023-02-02T19:48:13.412Z,93685.31
2023-02-02T19:50:42.573Z,93684.69
2023-02-02T19:53:20.657Z,93702.31
2023-02-02T19:55:49.532Z,93702.50
2023-02-02T19:58:26.812Z,93704.72
2023-02-02T20:00:57.677Z,93710.81
2023-02-02T20:03:43.441Z,93704.06
2023-02-02T20:06:25.234Z,93698.19
2023-02-02T20:08:54.148Z,93704.50
2023-02-02T20:11:37.464Z,93707.56
2023-02-02T20:14:32.571Z,93704.34
2023-02-02T20:17:07.054Z,93710.63
2023-02-02T20:19:40.742Z,93696.03
2023-02-02T20:22:35.447Z,93677.00
2023-02-02T20:25:07.354Z,93683.75
2023-02-02T20:27:36.020Z,93682.50
2023-02-02T20:30:28.585Z,93682.28
2023-02-02T20:33:01.704Z,93683.94
2023-02-02T20:35:42.266Z,93679.25
2023-02-02T20:38:22.958Z,93685.34
2023-02-02T20:40:52.361Z,93685.16
2023-02-02T20:43:20.780Z,93682.91
2023-02-02T20:45:50.589Z,93679.66
2023-02-02T20:48:19.595Z,93686.75
2023-02-02T20:50:47.938Z,93680.25
2023-02-02T20:53:16.925Z,93682.69
2023-02-02T20:55:45.380Z,93674.63
2023-02-02T20:58:13.960Z,93692.25
2023-02-02T21:00:42.771Z,93661.06
2023-02-02T21:03:13.563Z,93674.81
2023-02-02T21:05:42.080Z,93675.84
2023-02-02T21:08:10.498Z,93674.03
2023-02-02T21:10:38.865Z,93674.63
2023-02-02T21:13:07.058Z,93671.38
2023-02-02T21:15:35.194Z,93688.06
2023-02-02T21:18:03.131Z,93681.03
2023-02-02T21:20:31.889Z,93669.72
2023-02-02T21:23:01.888Z,93670.75
2023-02-02T21:25:29.919Z,93682.31
2023-02-02T21:28:00.403Z,93676.44
2023-02-02T21:30:37.075Z,93669.72
2023-02-02T21:33:06.040Z,93671.97
2023-02-02T21:35:34.865Z,93649.66
2023-02-02T21:38:13.240Z,93670.56
2023-02-02T21:40:42.198Z,93674.63
2023-02-02T21:43:18.620Z,93673.13
2023-02-02T21:45:56.090Z,93667.69
2023-02-02T21:48:33.116Z,93661.22
2023-02-02T21:51:23.613Z,93675.19
2023-02-02T21:53:52.392Z,93681.28
2023-02-02T21:56:29.064Z,93684.69
2023-02-02T21:59:00.761Z,93693.78
2023-02-02T22:01:38.487Z,93683.91
2023-02-02T22:04:25.843Z,93682.25
2023-02-02T22:06:59.955Z,93679.78
2023-02-02T22:09:39.827Z,93685.03
2023-02-02T22:12:28.760Z,93687.47
2023-02-02T22:15:05.158Z,93684.16
2023-02-02T22:17:41.005Z,93691.06
2023-02-02T22:20:30.313Z,93689.19
2023-02-02T22:22:58.201Z,93687.28
2023-02-02T22:25:35.580Z,93681.56
2023-02-02T22:28:19.517Z,93654.88
2023-02-02T22:30:49.112Z,93667.06
2023-02-02T22:33:17.733Z,93644.41
2023-02-02T22:35:46.660Z,93665.25
2023-02-02T22:38:20.563Z,93669.50
2023-02-02T22:40:49.829Z,93669.31
2023-02-02T22:43:19.051Z,93671.53
2023-02-02T22:45:48.014Z,93669.50
2023-02-02T22:48:16.948Z,93668.72
2023-02-02T22:50:45.156Z,93677.22
2023-02-02T22:53:15.604Z,93668.94
2023-02-02T22:55:43.715Z,93673.13
2023-02-02T22:58:11.731Z,93661.97
2023-02-02T23:00:40.028Z,93640.94
2023-02-02T23:03:07.999Z,93648.22
2023-02-02T23:05:35.971Z,93651.72
2023-02-02T23:08:03.841Z,93637.75
2023-02-02T23:10:35.711Z,93656.16
2023-02-02T23:13:04.906Z,93655.91
2023-02-02T23:15:33.638Z,93641.38
2023-02-02T23:18:02.060Z,93644.59
2023-02-02T23:20:30.055Z,93642.75
2023-02-02T23:22:57.979Z,93651.44
2023-02-02T23:25:26.035Z,93661.97
2023-02-02T23:27:54.105Z,93663.16
2023-02-02T23:30:24.815Z,93659.28
2023-02-02T23:32:53.422Z,93662.88
2023-02-02T23:35:21.383Z,93666.97
2023-02-02T23:37:49.412Z,93658.66
2023-02-02T23:40:17.513Z,93654.56
2023-02-02T23:42:45.413Z,93637.66
2023-02-02T23:45:16.116Z,93660.59
2023-02-02T23:47:44.866Z,93657.97
2023-02-02T23:50:13.303Z,93659.38
2023-02-02T23:52:41.739Z,93656.59
2023-02-02T23:55:10.342Z,93667.38
2023-02-02T23:57:38.453Z,93663.13
